Aperitivo a Grado

Maltempo: nella notte a Trieste la bora sfiora i 140

facebook

satelliteTemperature in picchiata in Friuli Venezia Giulia – con -21 gradi sul monte Lussari (Udine) – e bora a Trieste dove le raffiche, nella notte, hanno superato i 130 chilometri orari. L’ondata di maltempo e’ quindi arrivata anche al Nordest dove in giornata sono previste lievi nevicate sulla costa. A Trieste, a causa del forte vento, una ventina di anziani del reparto di geriatria dell’ospedale di Cattinara (che si trova nella parte alta della citta’) e’ stata trasferita al Maggiore dove i locali sono piu’ caldi. Le scuole, su ordinanza del sindaco, sono rimaste chiuse questa mattina, ma la circolazione in citta’ non ha subito rallentamenti.

Riepilogativi giornalieri dalla mezzanotte locale – rete ARPA FVG / OSMER
Giorno : 04 02 2012
stampa salva
STAZIONE

ORA

CIELO

TEMPERATURA
minima
[°C]
TEMPERATURA
media
[°C]
TEMPERATURA
massima
[°C]
UMIDITÀ
media
[%]
VENTO
medio
[km/h]
VENTO
massimo
[km/h]
PIOGGIA
totale
[mm]
Barcis 10:00 nuvoloso -5.6 -3.3 -1.7 19 0.0
Bicinicco 10:00 n. d. -3.4 -2.8 -1.7 36 16 47 0.0
Boa Paloma 10:00 coperto -3.1 -2.8 -2.5 52 70 105 0.0
Bordano 10:00 n. d. -1.8 -1.3 -0.9 0.0
Borgo Grotta Gigante 11:10 variabile -7.5 -6.8 -6.0 50 37 99 0.0
Brugnera 10:00 nuvoloso -5.7 -4.4 -1.6 41 5 16 0.0
Capriva d.F. 10:00 variabile -4.7 -3.6 -2.7 41 38 80 0.0
Cave del Predil 11:10 n. d. -11.1 -10.1 -9.4 55 3.0
Cervignano d.F. 10:00 nuvoloso -3.8 -2.9 -1.3 41 18 50 0.0
Chievolis 10:00 nuvoloso -1.7 -1.4 -0.9 0.0
Cividale d.F. 10:00 nuvoloso -4.1 -3.1 -2.4 40 30 59 0.0
Codroipo 10:00 nuvoloso -4.1 -3.0 -1.1 25 14 39 0.0
Coritis 10:00 n. d. -5.9 -5.6 -4.8 0.0
Enemonzo 10:00 nuvoloso -3.9 -3.6 -3.2 24 17 48 0.0
Faedis 10:00 coperto -4.0 -3.1 -1.6 38 6 26 0.0
Fagagna 10:00 nuvoloso -4.1 -2.6 -0.7 18 11 38 0.0
Forni di Sopra 10:00 nuvoloso -11.1 -9.8 -7.0 52 4 13 0.0
Fossalon di G. 10:00 nuvoloso -4.5 -3.6 -3.0 34 38 73 0.0
Gemona d.F. 10:00 coperto -1.8 -1.5 -1.2 17 25 59 0.0
Gorgo di Latisana 10:00 n. d. -3.2 -2.4 -1.2 22 22 55 0.0
Gradisca d’Is. 10:00 variabile -4.5 -3.7 -2.2 44 18 54 0.0
Grado 10:00 coperto -4.9 -4.0 -3.5 33 0.4
Grado Mare 11:05 coperto -3.5 -2.5 -2.0 35 44 76 0.0
Lauzacco 10:00 n. d. -3.9 -3.0 -2.0 36 22 50 0.0
Lignano 10:00 nuvoloso -3.2 -2.8 -2.3 48 28 58 0.0
Lussari (1760 m) 10:00 nuvoloso -20.8 -20.6 -20.3 94 36 58 0.0
Matajur (1630 m) 10:00 nuvoloso -15.7 -15.1 -14.4 72 9 49
Monfalcone 11:10 nuvoloso -4.0 -3.1 -2.3 48 0.0
Muggia 11:10 nuvoloso -3.8 -2.8 -2.1 51 72
Musi 10:00 n. d. -6.0 -5.4 -4.9 16 0.0
Pala d’Altei (1528 m) 09:00 nuvoloso -12.6 -12.2 -12.0 45 36 62
Palazzolo d.S. 10:00 nuvoloso -2.2 -1.8 -0.5 19 36 64 0.0
Paluzza 11:15 n. d. -6.7 -5.8 -5.0 35 0.0
Piancavallo (1275 m) 10:00 nuvoloso -9.3 -8.9 -8.0 43 14 33 0.0
Pontebba 11:10 n. d. -8.6 -7.5 -6.7 50 0.0
Pordenone 10:00 nuvoloso -3.6 -2.8 0.4 39 8 32 0.0
Pradamano 10:00 n. d. -3.9 -3.1 -2.0 23 15 39 0.0
S.Simeone (1505 m) 10:00 nuvoloso -14.5 -14.1 -13.6 52 13 37
S.Vito al Tgl. 10:00 nuvoloso -3.3 -2.7 -1.5 34 19 41 0.0
San Pietro al Natisone 11:10 nuvoloso -4.8 -3.5 -2.5 37 25 55 0.0
Sgonico 10:00 nuvoloso -6.5 -6.1 -5.3 52 47 88 0.0
Talmassons 10:00 nuvoloso -2.8 -2.2 -1.1 38 32 64 0.0
Tarvisio 10:00 nuvoloso -11.0 -10.4 -10.0 53 15 40 0.0
Tolmezzo 10:00 nuvoloso -3.1 -2.7 -2.3 24 15 44 0.0
Trieste 09:00 coperto -4.8 -4.6 -4.3 56 79 137 0.2
Udine 10:00 nuvoloso -3.6 -3.0 -1.8 34 16 42 0.0
Vivaro 10:00 nuvoloso -1.1 -0.4 0.2 14 20 44 0.0
Zoncolan (1750 m) 10:00 variabile -17.5 -16.8 -16.4 56 63 99 0.0

391